createdAt,value
2023-08-12T00:01:41.380Z,15.66
2023-08-12T00:04:58.704Z,15.58
2023-08-12T00:08:15.967Z,15.51
2023-08-12T00:11:32.602Z,15.46
2023-08-12T00:14:49.182Z,15.43
2023-08-12T00:18:07.841Z,15.38
2023-08-12T00:21:24.579Z,15.30
2023-08-12T00:24:41.393Z,15.24
2023-08-12T00:27:57.963Z,15.17
2023-08-12T00:31:14.680Z,15.10
2023-08-12T00:34:31.309Z,15.03
2023-08-12T00:37:48.337Z,14.97
2023-08-12T00:41:05.015Z,14.90
2023-08-12T00:44:21.755Z,14.82
2023-08-12T00:47:40.285Z,14.75
2023-08-12T00:50:58.763Z,14.68
2023-08-12T00:54:20.254Z,14.68
2023-08-12T00:57:38.362Z,14.67
2023-08-12T01:00:55.290Z,14.64
2023-08-12T01:04:12.680Z,14.61
2023-08-12T01:07:29.365Z,14.59
2023-08-12T01:10:50.324Z,14.54
2023-08-12T01:14:12.119Z,14.47
2023-08-12T01:17:31.784Z,14.47
2023-08-12T01:20:49.022Z,14.43
2023-08-12T01:24:06.293Z,14.39
2023-08-12T01:27:24.023Z,14.35
2023-08-12T01:30:43.077Z,14.34
2023-08-12T01:34:05.588Z,14.30
2023-08-12T01:37:27.678Z,14.24
2023-08-12T01:40:45.704Z,14.20
2023-08-12T01:44:02.897Z,14.19
2023-08-12T01:47:20.538Z,14.20
2023-08-12T01:50:36.948Z,14.16
2023-08-12T01:53:53.643Z,14.10
2023-08-12T01:57:12.208Z,14.08
2023-08-12T02:00:29.249Z,14.05
2023-08-12T02:03:45.943Z,14.04
2023-08-12T02:07:02.857Z,14.01
2023-08-12T02:10:21.070Z,13.99
2023-08-12T02:13:38.148Z,13.96
2023-08-12T02:16:54.832Z,13.94
2023-08-12T02:20:15.133Z,13.94
2023-08-12T02:23:31.695Z,13.88
2023-08-12T02:26:48.422Z,13.81
2023-08-12T02:30:05.834Z,13.80
2023-08-12T02:33:24.835Z,13.76
2023-08-12T02:36:41.535Z,13.75
2023-08-12T02:39:58.092Z,13.73
2023-08-12T02:43:14.907Z,13.75
2023-08-12T02:46:32.230Z,13.71
2023-08-12T02:49:49.648Z,13.72
2023-08-12T02:53:06.498Z,13.70
2023-08-12T02:56:23.346Z,13.66
2023-08-12T02:59:40.022Z,13.63
2023-08-12T03:02:56.768Z,13.57
2023-08-12T03:06:14.480Z,13.55
2023-08-12T03:09:31.187Z,13.54
2023-08-12T03:12:48.094Z,13.51
2023-08-12T03:16:05.875Z,13.50
2023-08-12T03:19:22.503Z,13.47
2023-08-12T03:22:39.882Z,13.45
2023-08-12T03:25:59.367Z,13.38
2023-08-12T03:29:16.089Z,13.32
2023-08-12T03:32:32.938Z,13.31
2023-08-12T03:35:53.098Z,13.23
2023-08-12T03:39:10.233Z,13.24
2023-08-12T03:42:27.319Z,13.27
2023-08-12T03:45:48.330Z,13.27
2023-08-12T03:49:06.025Z,13.29
2023-08-12T03:52:29.719Z,13.29
2023-08-12T03:55:46.431Z,13.25
2023-08-12T03:59:06.106Z,13.27
2023-08-12T04:02:22.812Z,13.36
2023-08-12T04:05:39.516Z,13.42
2023-08-12T04:09:01.613Z,13.52
2023-08-12T04:12:22.037Z,13.62
2023-08-12T04:15:38.697Z,13.70
2023-08-12T04:18:55.385Z,13.80
2023-08-12T04:22:12.120Z,13.84
2023-08-12T04:25:29.418Z,13.89
2023-08-12T04:28:46.540Z,13.93
2023-08-12T04:32:03.831Z,13.99
2023-08-12T04:35:21.905Z,14.01
2023-08-12T04:38:39.746Z,14.06
2023-08-12T04:41:57.521Z,14.11
2023-08-12T04:45:16.826Z,14.16
2023-08-12T04:48:36.871Z,14.24
2023-08-12T04:51:53.633Z,14.30
2023-08-12T04:55:12.804Z,14.38
2023-08-12T04:58:30.763Z,14.48
2023-08-12T05:02:02.311Z,14.56
2023-08-12T05:05:07.237Z,14.67
2023-08-12T05:08:24.911Z,14.76
2023-08-12T05:11:41.721Z,14.85
2023-08-12T05:14:58.817Z,14.96
2023-08-12T05:18:17.314Z,15.08
2023-08-12T05:21:34.152Z,15.22
2023-08-12T05:24:50.912Z,15.33
2023-08-12T05:28:07.471Z,15.44
2023-08-12T05:31:24.279Z,15.59
2023-08-12T05:34:41.018Z,15.78
2023-08-12T05:37:57.690Z,15.99
2023-08-12T05:41:14.397Z,16.18
2023-08-12T05:44:31.123Z,16.40
2023-08-12T05:47:48.040Z,16.55
2023-08-12T05:51:04.843Z,16.70
2023-08-12T05:54:24.781Z,16.90
2023-08-12T05:57:41.433Z,17.15
2023-08-12T06:00:58.371Z,17.35
2023-08-12T06:04:16.957Z,17.56
2023-08-12T06:07:34.494Z,17.72
2023-08-12T06:10:51.605Z,17.91
2023-08-12T06:14:08.176Z,18.11
2023-08-12T06:17:28.149Z,18.26
2023-08-12T06:20:46.729Z,18.57
2023-08-12T06:24:03.841Z,18.81
2023-08-12T06:27:22.095Z,19.01
2023-08-12T06:30:39.167Z,19.14
2023-08-12T06:33:55.778Z,19.26
2023-08-12T06:37:12.687Z,19.39
2023-08-12T06:40:30.075Z,19.54
2023-08-12T06:43:52.030Z,19.67
2023-08-12T06:47:09.169Z,19.82
2023-08-12T06:50:50.263Z,20.01
2023-08-12T06:54:22.791Z,20.24
2023-08-12T06:57:49.718Z,20.43
2023-08-12T07:01:15.917Z,20.52
2023-08-12T07:04:41.358Z,20.54
2023-08-12T07:07:58.972Z,20.66
2023-08-12T07:11:26.182Z,20.80
2023-08-12T07:14:55.756Z,21.11
2023-08-12T07:18:25.144Z,21.43
2023-08-12T07:21:53.713Z,21.70
2023-08-12T07:25:25.005Z,21.94
2023-08-12T07:28:53.626Z,21.95
2023-08-12T07:32:26.698Z,22.07
2023-08-12T07:35:45.574Z,22.24
2023-08-12T07:39:09.414Z,22.67
2023-08-12T07:42:31.338Z,22.84
2023-08-12T07:45:51.510Z,23.07
2023-08-12T07:49:12.314Z,23.43
2023-08-12T07:52:31.784Z,23.63
2023-08-12T07:55:48.616Z,23.69
2023-08-12T07:59:12.435Z,23.83
2023-08-12T08:02:34.720Z,24.14
2023-08-12T08:05:52.760Z,24.42
2023-08-12T08:09:09.529Z,24.31
2023-08-12T08:12:26.437Z,24.89
2023-08-12T08:15:43.013Z,25.56
2023-08-12T08:18:59.642Z,26.16
2023-08-12T08:22:16.409Z,26.71
2023-08-12T08:25:33.176Z,27.15
2023-08-12T08:28:50.541Z,27.91
2023-08-12T08:32:07.445Z,28.39
2023-08-12T08:35:29.647Z,29.03
2023-08-12T08:38:47.759Z,29.33
2023-08-12T08:42:05.707Z,29.48
2023-08-12T08:45:24.787Z,30.04
2023-08-12T08:48:43.731Z,30.58
2023-08-12T08:52:01.532Z,30.56
2023-08-12T08:55:20.498Z,29.44
2023-08-12T08:58:38.194Z,29.92
2023-08-12T09:01:56.959Z,30.66
2023-08-12T09:05:18.899Z,31.02
2023-08-12T09:08:37.724Z,31.65
2023-08-12T09:11:55.112Z,31.59
2023-08-12T09:15:13.042Z,31.45
2023-08-12T09:18:29.882Z,31.22
2023-08-12T09:21:46.563Z,31.52
2023-08-12T09:25:09.410Z,31.86
2023-08-12T09:28:26.793Z,31.94
2023-08-12T09:31:43.715Z,32.03
2023-08-12T09:35:05.130Z,31.66
2023-08-12T09:38:24.420Z,31.35
2023-08-12T09:41:41.187Z,31.23
2023-08-12T09:44:58.051Z,31.45
2023-08-12T09:48:17.657Z,31.24
2023-08-12T09:51:34.601Z,30.79
2023-08-12T09:54:53.771Z,30.40
2023-08-12T09:58:14.818Z,29.94
2023-08-12T10:01:32.238Z,30.01
2023-08-12T10:04:52.784Z,29.96
2023-08-12T10:08:10.054Z,30.09
2023-08-12T10:11:28.020Z,30.08
2023-08-12T10:14:42.542Z,30.02
2023-08-12T10:18:00.750Z,30.04
2023-08-12T10:21:19.875Z,29.95
2023-08-12T10:24:37.308Z,29.62
2023-08-12T10:27:54.274Z,29.65
2023-08-12T10:31:11.622Z,29.44
2023-08-12T10:34:34.532Z,29.50
2023-08-12T10:37:53.350Z,29.47
2023-08-12T10:41:27.742Z,29.21
2023-08-12T10:44:58.402Z,29.09
2023-08-12T10:48:31.050Z,29.07
2023-08-12T10:51:56.775Z,29.07
2023-08-12T10:55:31.184Z,28.95
2023-08-12T10:58:53.616Z,28.73
2023-08-12T11:02:22.869Z,28.60
2023-08-12T11:05:46.776Z,28.62
2023-08-12T11:09:05.262Z,28.54
2023-08-12T11:12:25.604Z,28.34
2023-08-12T11:15:47.605Z,28.27
2023-08-12T11:19:05.176Z,28.26
2023-08-12T11:22:23.153Z,28.20
2023-08-12T11:25:42.222Z,28.19
2023-08-12T11:28:59.957Z,28.15
2023-08-12T11:32:17.198Z,28.00
2023-08-12T11:35:34.619Z,27.95
2023-08-12T11:38:51.293Z,27.88
2023-08-12T11:42:08.287Z,27.83
2023-08-12T11:45:28.204Z,27.72
2023-08-12T11:48:44.811Z,27.56
2023-08-12T11:52:01.632Z,27.49
2023-08-12T11:55:19.665Z,27.33
2023-08-12T11:58:52.406Z,27.25
2023-08-12T12:02:03.767Z,27.07
2023-08-12T12:05:24.536Z,27.05
2023-08-12T12:08:43.909Z,26.90
2023-08-12T12:12:02.282Z,26.88
2023-08-12T12:15:21.653Z,26.76
2023-08-12T12:18:38.791Z,26.70
2023-08-12T12:21:57.487Z,26.68
2023-08-12T12:25:21.296Z,26.56
2023-08-12T12:28:38.655Z,26.52
2023-08-12T12:31:56.251Z,26.48
2023-08-12T12:35:22.820Z,26.43
2023-08-12T12:38:56.657Z,26.35
2023-08-12T12:42:19.225Z,26.24
2023-08-12T12:45:37.761Z,26.13
2023-08-12T12:48:58.172Z,26.07
2023-08-12T12:52:20.140Z,26.02
2023-08-12T12:55:42.904Z,25.94
2023-08-12T12:59:02.899Z,25.92
2023-08-12T13:02:27.854Z,25.88
2023-08-12T13:05:49.621Z,25.84
2023-08-12T13:09:12.423Z,25.80
2023-08-12T13:12:29.081Z,25.77
2023-08-12T13:15:46.206Z,25.73
2023-08-12T13:19:02.946Z,25.70
2023-08-12T13:22:20.163Z,25.63
2023-08-12T13:25:42.189Z,25.59
2023-08-12T13:29:13.468Z,25.57
2023-08-12T13:32:30.117Z,25.55
2023-08-12T13:35:47.176Z,25.51
2023-08-12T13:39:04.812Z,25.49
2023-08-12T13:42:21.326Z,25.46
2023-08-12T13:45:38.186Z,25.46
2023-08-12T13:48:54.860Z,25.49
2023-08-12T13:52:12.085Z,25.48
2023-08-12T13:55:29.134Z,25.45
2023-08-12T13:58:45.689Z,25.44
2023-08-12T14:02:02.357Z,25.43
2023-08-12T14:05:20.628Z,25.41
2023-08-12T14:08:37.517Z,25.39
2023-08-12T14:11:54.856Z,25.35
2023-08-12T14:15:13.188Z,25.32
2023-08-12T14:18:30.023Z,25.29
2023-08-12T14:21:46.734Z,25.25
2023-08-12T14:25:04.623Z,25.22
2023-08-12T14:28:19.598Z,25.17
2023-08-12T14:31:36.319Z,25.14
2023-08-12T14:34:53.023Z,25.11
2023-08-12T14:38:09.956Z,25.11
2023-08-12T14:41:27.051Z,25.11
2023-08-12T14:44:47.889Z,25.10
2023-08-12T14:48:04.573Z,25.07
2023-08-12T14:51:21.383Z,25.05
2023-08-12T14:54:42.516Z,25.02
2023-08-12T14:58:00.200Z,25.02
2023-08-12T15:01:19.985Z,25.02
2023-08-12T15:04:36.936Z,24.99
2023-08-12T15:07:53.809Z,24.97
2023-08-12T15:11:12.514Z,24.95
2023-08-12T15:14:33.223Z,24.92
2023-08-12T15:17:52.133Z,24.94
2023-08-12T15:21:09.238Z,24.92
2023-08-12T15:24:26.034Z,24.87
2023-08-12T15:27:43.121Z,24.84
2023-08-12T15:31:01.657Z,24.84
2023-08-12T15:34:15.940Z,24.86
2023-08-12T15:37:32.294Z,24.91
2023-08-12T15:40:53.965Z,24.89
2023-08-12T15:44:14.116Z,24.87
2023-08-12T15:47:34.708Z,24.84
2023-08-12T15:50:55.745Z,24.78
2023-08-12T15:54:16.340Z,24.76
2023-08-12T15:57:33.065Z,24.74
2023-08-12T16:00:53.799Z,24.72
2023-08-12T16:04:15.632Z,24.65
2023-08-12T16:07:33.509Z,24.59
2023-08-12T16:10:53.640Z,24.55
2023-08-12T16:14:12.123Z,24.48
2023-08-12T16:17:31.459Z,24.46
2023-08-12T16:20:48.398Z,24.40
2023-08-12T16:24:06.331Z,24.33
2023-08-12T16:27:23.198Z,24.30
2023-08-12T16:30:39.855Z,24.25
2023-08-12T16:33:59.743Z,24.19
2023-08-12T16:37:20.797Z,24.19
2023-08-12T16:40:39.529Z,24.16
2023-08-12T16:43:58.115Z,24.13
2023-08-12T16:47:17.937Z,24.08
2023-08-12T16:50:39.086Z,24.02
2023-08-12T16:53:58.770Z,23.96
2023-08-12T16:57:24.551Z,23.97
2023-08-12T17:00:44.546Z,23.96
2023-08-12T17:04:04.418Z,24.02
2023-08-12T17:07:25.390Z,23.92
2023-08-12T17:10:49.133Z,23.82
2023-08-12T17:14:12.314Z,23.71
2023-08-12T17:17:34.868Z,23.68
2023-08-12T17:20:51.812Z,23.58
2023-08-12T17:24:11.168Z,23.51
2023-08-12T17:27:31.125Z,23.42
2023-08-12T17:30:47.956Z,23.37
2023-08-12T17:34:04.872Z,23.30
2023-08-12T17:37:21.465Z,23.22
2023-08-12T17:40:38.173Z,23.14
2023-08-12T17:43:54.789Z,23.06
2023-08-12T17:47:13.383Z,22.96
2023-08-12T17:50:27.788Z,22.88
2023-08-12T17:53:44.673Z,22.77
2023-08-12T17:57:06.074Z,22.67
2023-08-12T18:00:24.961Z,22.55
2023-08-12T18:03:41.839Z,22.44
2023-08-12T18:06:58.666Z,22.34
2023-08-12T18:10:16.578Z,22.22
2023-08-12T18:13:36.060Z,22.12
2023-08-12T18:16:53.066Z,22.03
2023-08-12T18:20:11.539Z,21.92
2023-08-12T18:23:29.494Z,21.87
2023-08-12T18:26:46.284Z,21.81
2023-08-12T18:30:04.235Z,21.76
2023-08-12T18:33:21.181Z,21.71
2023-08-12T18:36:39.388Z,21.62
2023-08-12T18:39:56.260Z,21.56
2023-08-12T18:43:13.098Z,21.52
2023-08-12T18:46:32.506Z,21.42
2023-08-12T18:49:51.120Z,21.47
2023-08-12T18:53:06.367Z,21.58
2023-08-12T18:56:22.903Z,21.69
2023-08-12T18:59:39.697Z,21.72
2023-08-12T19:02:56.465Z,21.73
2023-08-12T19:06:13.441Z,21.75
2023-08-12T19:09:30.194Z,21.73
2023-08-12T19:12:46.839Z,21.76
2023-08-12T19:16:04.518Z,21.80
2023-08-12T19:19:21.348Z,21.81
2023-08-12T19:22:38.572Z,21.83
2023-08-12T19:26:03.895Z,21.84
2023-08-12T19:29:32.106Z,21.84
2023-08-12T19:33:04.693Z,21.81
2023-08-12T19:36:22.521Z,21.80
2023-08-12T19:39:39.752Z,21.73
2023-08-12T19:42:57.023Z,21.64
2023-08-12T19:46:14.535Z,21.59
2023-08-12T19:49:41.382Z,21.48
2023-08-12T19:53:04.012Z,21.48
2023-08-12T19:56:30.415Z,21.42
2023-08-12T19:59:52.144Z,21.30
2023-08-12T20:03:12.539Z,21.20
2023-08-12T20:06:33.631Z,21.06
2023-08-12T20:09:51.181Z,20.95
2023-08-12T20:13:09.074Z,20.80
2023-08-12T20:16:37.830Z,20.60
2023-08-12T20:19:56.912Z,20.45
2023-08-12T20:23:16.081Z,20.27
2023-08-12T20:26:37.261Z,20.10
2023-08-12T20:29:57.645Z,19.95
2023-08-12T20:33:16.259Z,19.80
2023-08-12T20:36:34.074Z,19.67
2023-08-12T20:39:51.328Z,19.58
2023-08-12T20:43:11.720Z,19.49
2023-08-12T20:46:28.854Z,19.40
2023-08-12T20:49:46.390Z,19.33
2023-08-12T20:53:03.935Z,19.28
2023-08-12T20:56:21.129Z,19.20
2023-08-12T20:59:40.294Z,19.15
2023-08-12T21:02:57.674Z,19.10
2023-08-12T21:06:17.078Z,19.03
2023-08-12T21:09:37.259Z,18.97
2023-08-12T21:12:54.640Z,18.93
2023-08-12T21:16:12.990Z,18.86
2023-08-12T21:19:32.411Z,18.80
2023-08-12T21:22:51.960Z,18.76
2023-08-12T21:26:09.651Z,18.74
2023-08-12T21:29:26.944Z,18.73
2023-08-12T21:32:47.392Z,18.67
2023-08-12T21:36:08.326Z,18.63
2023-08-12T21:39:27.171Z,18.55
2023-08-12T21:42:49.606Z,18.52
2023-08-12T21:46:10.298Z,18.45
2023-08-12T21:49:44.698Z,18.40
2023-08-12T21:53:18.586Z,18.39
2023-08-12T21:56:46.835Z,18.37
2023-08-12T22:00:31.710Z,18.30
2023-08-12T22:03:57.597Z,18.21
2023-08-12T22:07:31.322Z,18.17
2023-08-12T22:11:15.690Z,18.14
2023-08-12T22:14:48.748Z,18.09
2023-08-12T22:18:17.618Z,17.99
2023-08-12T22:21:44.768Z,18.01
2023-08-12T22:25:03.560Z,18.02
2023-08-12T22:28:22.397Z,18.00
2023-08-12T22:31:42.732Z,17.93
2023-08-12T22:35:07.958Z,17.90
2023-08-12T22:38:29.819Z,17.87
2023-08-12T22:41:55.338Z,17.87
2023-08-12T22:45:14.339Z,17.78
2023-08-12T22:48:32.244Z,17.78
2023-08-12T22:51:53.254Z,17.82
2023-08-12T22:55:14.112Z,17.80
2023-08-12T22:58:37.384Z,17.78
2023-08-12T23:01:58.196Z,17.73
2023-08-12T23:05:16.951Z,17.67
2023-08-12T23:08:37.736Z,17.65
2023-08-12T23:12:00.978Z,17.65
2023-08-12T23:15:23.306Z,17.68
2023-08-12T23:18:41.120Z,17.66
2023-08-12T23:22:01.634Z,17.62
2023-08-12T23:25:54.010Z,17.60
2023-08-12T23:29:36.644Z,17.57
2023-08-12T23:32:55.958Z,17.57
2023-08-12T23:36:16.882Z,17.50
2023-08-12T23:39:44.347Z,17.44
2023-08-12T23:43:19.170Z,17.40
2023-08-12T23:46:36.623Z,17.37
2023-08-12T23:49:55.178Z,17.38
2023-08-12T23:53:27.921Z,17.35
2023-08-12T23:57:09.380Z,17.32
